Terminal Aerodrome Forecast
Issued by NWS Mt. Holly, NJ

Home | Current Version | Previous Version | Text Only | Print | Product List | Glossary On
Versions: 1 2 3 4 5 6 7 8 9 10 11 12 13 14 15 16
000
FTAK31 PANC 230522
TAFABE
TAF
PABE 230522Z 2306/2406 VRB05KT P6SM SCT025
      TEMPO 2306/2310 BKN025
     FM231200 18004KT P6SM BKN015
     FM232000 15004KT P6SM BKN050=

USA.gov is the U.S. government's official web portal to all federal, state and local government web resources and services.